Lafayette, California
Current Conditions -  °F | °C
As of 7:53 PM on Sunday 21 Dec 2014 (Local Time) from KCCR Reporting Station
Broken Clouds Broken Clouds  
Wind Chill: 62°   Ceiling: 1400
Heat Index: 62°   Visibility: 10mi
Dew Point: 57°   Wind: 3mph
Humidity: 84%   Direction: 260°W
Pressure: 30.28"   Gusts: NA
Location:  37.89°N, 122.12°W
Report Text: KCCR 220353Z 26003KT 10SM BKN014 17/14 A3028 RMK AO2 SLP239 T01670139
Loading
Personal Weather Stations






























Interactive Weather Map New forecast layout! Learn more

10-Day Weather Forecast

Advertisements
Track Severe Weather on mobile